Gulf Stream, Florida
Current Conditions -  °F | °C
As of 12:53 AM on Sunday 23 Nov 2014 (Local Time) from KPMP Reporting Station
Scattered Clouds Scattered Clouds  
Wind Chill: 78°   Ceiling: Unl
Heat Index: 80°   Visibility: 9mi
Dew Point: 72°   Wind: 23mph
Humidity: 81%   Direction: 120°ESE
Pressure: 30.06"   Gusts: 32mph
Location:  26.4557°N, 80.0677°W
Report Text: KPMP 230553Z 12020G28KT 9SM SCT019 SCT028 26/22 A3006 RMK AO2 PK WND 13028/0544 SLP179 60003 T02560222 10261 20244 58009
Loading
Personal Weather Stations






























Interactive Weather Map New forecast layout! Learn more

10-Day Weather Forecast

Advertisements
Track Severe Weather on mobile